Wetterdaten: Woche 03.12.18 - 09.12.18 (KW49)
Datum Zeit Temp. Aussen Temp. o. S. +5cm Feuchte Auss Luftdruck Regen Sonnenschein Regendauer Solar Windben Empfang
03.12.2018 00:00 12,9 C 11,7 C 11,2 C 98 % 998,6 hPa 2,4 l/m 0,00 h 1,00 h 0 W/m 13,3 km/h (3 Bft) 95,14 %
03.12.2018 01:00 12,7 C 11,7 C 11,1 C 98 % 998,4 hPa 0,4 l/m 0,00 h 0,37 h 0 W/m 14,3 km/h (3 Bft) 96,90 %
03.12.2018 02:00 12,6 C 11,7 C 11,1 C 98 % 998,6 hPa 0,0 l/m 0,00 h 0,00 h 0 W/m 13,4 km/h (3 Bft) 98,15 %
03.12.2018 03:00 12,7 C 11,8 C 11,1 C 98 % 998,4 hPa 0,0 l/m 0,00 h 0,17 h 0 W/m 14,8 km/h (3 Bft) 97,51 %
03.12.2018 04:00 12,6 C 11,7 C 11,1 C 98 % 997,9 hPa 0,2 l/m 0,00 h 0,23 h 0 W/m 14,5 km/h (3 Bft) 97,30 %
03.12.2018 05:00 12,6 C 12,0 C 11,1 C 97 % 998,5 hPa 0,0 l/m 0,00 h 0,00 h 0 W/m 15,9 km/h (3 Bft) 97,10 %
03.12.2018 06:00 12,5 C 11,3 C 10,7 C 96 % 998,7 hPa 0,8 l/m 0,00 h 0,73 h 0 W/m 15,1 km/h (3 Bft) 98,01 %
03.12.2018 07:00 12,1 C 11,0 C 10,3 C 96 % 998,8 hPa 0,8 l/m 0,00 h 0,43 h 0 W/m 13,1 km/h (3 Bft) 97,80 %
03.12.2018 08:00 11,5 C 10,1 C 9,5 C 95 % 999,2 hPa 0,0 l/m 0,00 h 0,00 h 8 W/m 10,8 km/h (2 Bft) 95,86 %
03.12.2018 09:00 11,6 C 11,0 C 10,3 C 96 % 999,4 hPa 0,0 l/m 0,40 h 0,03 h 61 W/m 13,6 km/h (3 Bft) 98,67 %
03.12.2018 10:00 12,4 C 12,0 C 11,1 C 95 % 999,6 hPa 0,0 l/m 0,17 h 0,00 h 79 W/m 14,1 km/h (3 Bft) 98,38 %
03.12.2018 11:00 12,9 C 13,4 C 11,8 C 92 % 999,5 hPa 0,0 l/m 0,17 h 0,27 h 98 W/m 14,1 km/h (3 Bft) 95,75 %
03.12.2018 12:00 13,5 C 14,5 C 12,5 C 90 % 998,8 hPa 0,0 l/m 0,40 h 0,17 h 160 W/m 16,8 km/h (3 Bft) 98,45 %
03.12.2018 13:00 13,9 C 14,5 C 12,7 C 88 % 998,2 hPa 0,0 l/m 0,33 h 0,00 h 131 W/m 16,4 km/h (3 Bft) 96,61 %
03.12.2018 14:00 14,0 C 13,6 C 12,6 C 86 % 997,6 hPa 0,0 l/m 0,03 h 0,17 h 70 W/m 18,9 km/h (3 Bft) 98,73 %
03.12.2018 15:00 13,6 C 12,5 C 11,9 C 89 % 997,4 hPa 0,6 l/m 0,00 h 0,37 h 36 W/m 17,3 km/h (3 Bft) 97,25 %
03.12.2018 16:00 12,8 C 11,1 C 10,6 C 92 % 997,5 hPa 0,0 l/m 0,00 h 0,00 h 10 W/m 17,0 km/h (3 Bft) 97,05 %
03.12.2018 17:00 12,1 C 10,7 C 10,4 C 92 % 997,6 hPa 0,0 l/m 0,00 h 0,00 h 0 W/m 14,5 km/h (3 Bft) 96,94 %
03.12.2018 18:00 11,7 C 10,6 C 10,6 C 94 % 997,7 hPa 0,0 l/m 0,00 h 0,00 h 0 W/m 14,1 km/h (3 Bft) 97,40 %
03.12.2018 19:00 11,7 C 10,4 C 10,1 C 94 % 998,1 hPa 0,2 l/m 0,00 h 0,93 h 0 W/m 14,4 km/h (3 Bft) 98,06 %
03.12.2018 20:00 11,5 C 10,4 C 9,9 C 93 % 998,7 hPa 0,0 l/m 0,00 h 0,20 h 0 W/m 12,4 km/h (3 Bft) 97,38 %
03.12.2018 21:00 11,7 C 10,4 C 10,0 C 93 % 999,5 hPa 0,4 l/m 0,00 h 0,70 h 0 W/m 16,7 km/h (3 Bft) 96,20 %
03.12.2018 22:00 11,3 C 10,0 C 9,4 C 94 % 1000,5 hPa 0,8 l/m 0,00 h 0,60 h 0 W/m 18,5 km/h (3 Bft) 98,10 %
03.12.2018 23:00 10,9 C 9,7 C 9,3 C 96 % 1001,9 hPa 0,4 l/m 0,00 h 0,27 h 0 W/m 17,2 km/h (3 Bft) 97,63 %
04.12.2018 00:00 10,0 C 8,7 C 8,4 C 96 % 1004,0 hPa 0,2 l/m 0,00 h 0,00 h 0 W/m 26,1 km/h (4 Bft) 92,59 %
04.12.2018 01:00 8,3 C 6,9 C 6,9 C 95 % 1006,2 hPa 0,0 l/m 0,00 h 0,00 h 0 W/m 18,0 km/h (3 Bft) 98,00 %
04.12.2018 02:00 7,6 C 6,5 C 6,4 C 95 % 1007,8 hPa 0,0 l/m 0,00 h 0,00 h 0 W/m 9,2 km/h (2 Bft) 97,77 %
04.12.2018 03:00 7,4 C 6,5 C 6,1 C 95 % 1009,0 hPa 0,0 l/m 0,00 h 0,00 h 0 W/m 7,9 km/h (2 Bft) 94,81 %
04.12.2018 04:00 7,4 C 6,7 C 6,1 C 96 % 1010,0 hPa 0,0 l/m 0,00 h 0,00 h 0 W/m 8,0 km/h (2 Bft) 96,46 %
04.12.2018 05:00 7,2 C 6,3 C 6,0 C 96 % 1011,1 hPa 0,0 l/m 0,00 h 0,00 h 0 W/m 5,9 km/h (2 Bft) 98,51 %
04.12.2018 06:00 6,9 C 6,1 C 5,7 C 96 % 1012,4 hPa 0,0 l/m 0,00 h 0,07 h 0 W/m 9,1 km/h (2 Bft) 97,26 %
04.12.2018 07:00 6,9 C 6,0 C 5,6 C 96 % 1013,6 hPa 0,0 l/m 0,00 h 0,03 h 0 W/m 5,6 km/h (1 Bft) 96,91 %
04.12.2018 08:00 6,6 C 5,6 C 5,3 C 96 % 1015,0 hPa 0,0 l/m 0,00 h 0,00 h 11 W/m 5,9 km/h (2 Bft) 97,30 %
04.12.2018 09:00 6,1 C 6,1 C 4,8 C 95 % 1016,4 hPa 0,0 l/m 0,07 h 0,00 h 40 W/m 6,4 km/h (2 Bft) 96,50 %
04.12.2018 10:00 6,8 C 10,7 C 5,7 C 95 % 1017,7 hPa 0,0 l/m 0,87 h 0,00 h 150 W/m 8,7 km/h (2 Bft) 98,72 %
04.12.2018 11:00 8,4 C 14,4 C 6,9 C 90 % 1018,6 hPa 0,0 l/m 1,00 h 0,00 h 252 W/m 12,7 km/h (3 Bft) 96,66 %
04.12.2018 12:00 10,0 C 17,3 C 9,3 C 82 % 1019,2 hPa 0,0 l/m 0,97 h 0,00 h 288 W/m 10,3 km/h (2 Bft) 99,57 %
04.12.2018 13:00 10,3 C 12,9 C 7,3 C 77 % 1019,7 hPa 0,0 l/m 0,47 h 0,00 h 154 W/m 8,2 km/h (2 Bft) 97,05 %
04.12.2018 14:00 9,4 C 11,8 C 8,0 C 80 % 1020,4 hPa 0,0 l/m 0,72 h 0,00 h 164 W/m 7,6 km/h (2 Bft) 98,02 %
04.12.2018 15:00 8,6 C 6,9 C 5,9 C 81 % 1021,2 hPa 0,0 l/m 0,00 h 0,00 h 24 W/m 2,5 km/h (1 Bft) 97,64 %
04.12.2018 16:00 6,8 C 4,7 C 3,8 C 84 % 1021,8 hPa 0,0 l/m 0,00 h 0,00 h 8 W/m 0,0 km/h (0 Bft) 95,86 %
04.12.2018 17:00 5,0 C 3,0 C 2,5 C 87 % 1022,4 hPa 0,0 l/m 0,00 h 0,00 h 0 W/m 0,2 km/h (0 Bft) 96,30 %
04.12.2018 18:00 4,0 C 2,9 C 2,2 C 89 % 1022,7 hPa 0,0 l/m 0,00 h 0,00 h 0 W/m 0,2 km/h (0 Bft) 98,90 %
04.12.2018 19:00 3,5 C 2,4 C 1,9 C 91 % 1023,1 hPa 0,0 l/m 0,00 h 0,00 h 0 W/m 0,2 km/h (0 Bft) 98,65 %
04.12.2018 20:00 3,0 C 2,0 C 1,5 C 92 % 1023,5 hPa 0,0 l/m 0,00 h 0,00 h 0 W/m 0,6 km/h (0 Bft) 95,74 %
04.12.2018 21:00 2,7 C 1,4 C 1,0 C 93 % 1024,1 hPa 0,0 l/m 0,00 h 0,00 h 0 W/m 1,3 km/h (1 Bft) 97,65 %
04.12.2018 22:00 1,9 C 0,6 C 0,3 C 93 % 1024,4 hPa 0,0 l/m 0,00 h 0,00 h 0 W/m 1,2 km/h (1 Bft) 95,57 %
04.12.2018 23:00 2,0 C 1,6 C 0,8 C 95 % 1024,5 hPa 0,0 l/m 0,00 h 0,00 h 0 W/m 2,7 km/h (1 Bft) 97,80 %
05.12.2018 00:00 2,6 C 2,5 C 1,5 C 96 % 1024,4 hPa 0,0 l/m 0,00 h 0,00 h 0 W/m 6,3 km/h (2 Bft) 96,54 %
05.12.2018 01:00 3,0 C 2,8 C 2,0 C 96 % 1024,2 hPa 0,0 l/m 0,00 h 0,00 h 0 W/m 10,1 km/h (2 Bft) 97,08 %
05.12.2018 02:00 3,0 C 2,4 C 1,8 C 97 % 1024,0 hPa 0,0 l/m 0,00 h 0,00 h 0 W/m 12,8 km/h (3 Bft) 98,72 %
05.12.2018 03:00 2,5 C 2,0 C 1,3 C 97 % 1024,0 hPa 0,0 l/m 0,00 h 0,00 h 0 W/m 11,4 km/h (2 Bft) 98,08 %
05.12.2018 04:00 2,0 C 1,4 C 0,9 C 97 % 1023,6 hPa 0,0 l/m 0,00 h 0,00 h 0 W/m 12,1 km/h (2 Bft) 95,70 %
05.12.2018 05:00 1,4 C 0,7 C 0,3 C 97 % 1023,6 hPa 0,0 l/m 0,00 h 0,00 h 0 W/m 13,3 km/h (3 Bft) 97,85 %
05.12.2018 06:00 1,5 C 1,1 C 0,7 C 97 % 1023,3 hPa 0,0 l/m 0,00 h 0,00 h 0 W/m 15,0 km/h (3 Bft) 98,97 %
05.12.2018 07:00 2,0 C 1,8 C 1,1 C 98 % 1023,2 hPa 0,0 l/m 0,00 h 0,00 h 0 W/m 14,4 km/h (3 Bft) 96,59 %
05.12.2018 08:00 2,3 C 2,3 C 1,5 C 98 % 1023,2 hPa 0,2 l/m 0,00 h 0,00 h 8 W/m 12,0 km/h (2 Bft) 96,78 %
05.12.2018 09:00 2,9 C 3,0 C 2,4 C 98 % 1022,7 hPa 0,0 l/m 0,00 h 0,00 h 30 W/m 14,0 km/h (3 Bft) 97,93 %
05.12.2018 10:00 3,5 C 3,6 C 3,0 C 98 % 1022,2 hPa 0,0 l/m 0,00 h 0,00 h 54 W/m 15,0 km/h (3 Bft) 95,97 %
05.12.2018 11:00 4,3 C 4,6 C 4,0 C 96 % 1021,7 hPa 0,0 l/m 0,00 h 0,00 h 87 W/m 17,1 km/h (3 Bft) 97,45 %
05.12.2018 12:00 5,1 C 5,2 C 4,4 C 93 % 1020,7 hPa 0,0 l/m 0,00 h 0,00 h 82 W/m 20,4 km/h (4 Bft) 97,70 %
05.12.2018 13:00 5,8 C 6,1 C 5,4 C 91 % 1019,9 hPa 0,0 l/m 0,07 h 0,00 h 118 W/m 20,5 km/h (4 Bft) 97,75 %
05.12.2018 14:00 6,4 C 6,6 C 5,6 C 90 % 1019,0 hPa 0,0 l/m 0,00 h 0,00 h 82 W/m 20,2 km/h (4 Bft) 96,02 %
05.12.2018 15:00 6,7 C 6,3 C 5,6 C 90 % 1018,1 hPa 0,0 l/m 0,00 h 0,23 h 24 W/m 17,3 km/h (3 Bft) 98,86 %
05.12.2018 16:00 6,8 C 6,1 C 5,2 C 91 % 1017,2 hPa 0,0 l/m 0,00 h 0,27 h 6 W/m 21,1 km/h (4 Bft) 97,57 %
05.12.2018 17:00 6,8 C 5,7 C 5,1 C 92 % 1016,3 hPa 0,0 l/m 0,00 h 0,63 h 0 W/m 21,2 km/h (4 Bft) 95,67 %
05.12.2018 18:00 6,7 C 6,1 C 5,6 C 92 % 1015,6 hPa 0,0 l/m 0,00 h 0,03 h 0 W/m 25,0 km/h (4 Bft) 98,49 %
05.12.2018 19:00 6,6 C 6,1 C 5,6 C 91 % 1014,7 hPa 0,0 l/m 0,00 h 0,00 h 0 W/m 23,0 km/h (4 Bft) 97,08 %
05.12.2018 20:00 6,8 C 6,3 C 5,6 C 91 % 1014,1 hPa 0,0 l/m 0,00 h 0,03 h 0 W/m 18,8 km/h (3 Bft) 97,87 %
05.12.2018 21:00 7,1 C 6,7 C 6,0 C 91 % 1013,4 hPa 0,0 l/m 0,00 h 0,00 h 0 W/m 27,6 km/h (4 Bft) 97,65 %
05.12.2018 22:00 7,0 C 6,4 C 5,7 C 91 % 1013,1 hPa 0,0 l/m 0,00 h 0,13 h 0 W/m 25,3 km/h (4 Bft) 95,66 %
05.12.2018 23:00 6,9 C 6,3 C 5,6 C 92 % 1012,6 hPa 0,0 l/m 0,00 h 0,20 h 0 W/m 20,3 km/h (4 Bft) 99,28 %
06.12.2018 00:00 7,0 C 6,6 C 5,9 C 93 % 1012,3 hPa 0,0 l/m 0,00 h 0,00 h 0 W/m 19,1 km/h (3 Bft) 97,29 %
06.12.2018 01:00 7,1 C 6,7 C 6,1 C 93 % 1012,0 hPa 0,0 l/m 0,00 h 0,00 h 0 W/m 21,7 km/h (4 Bft) 96,17 %
06.12.2018 02:00 7,2 C 6,7 C 6,1 C 94 % 1011,8 hPa 0,0 l/m 0,00 h 0,00 h 0 W/m 19,4 km/h (3 Bft) 99,63 %
06.12.2018 03:00 7,3 C 6,6 C 6,1 C 95 % 1011,7 hPa 0,2 l/m 0,00 h 0,13 h 0 W/m 16,4 km/h (3 Bft) 96,81 %
06.12.2018 04:00 7,3 C 6,4 C 6,1 C 97 % 1011,5 hPa 0,0 l/m 0,00 h 0,00 h 0 W/m 17,0 km/h (3 Bft) 96,59 %
06.12.2018 05:00 7,4 C 6,7 C 6,3 C 97 % 1011,7 hPa 0,0 l/m 0,00 h 0,00 h 0 W/m 12,3 km/h (3 Bft) 99,56 %
06.12.2018 06:00 7,7 C 7,0 C 6,7 C 98 % 1012,1 hPa 0,2 l/m 0,00 h 0,07 h 0 W/m 8,0 km/h (2 Bft) 96,54 %
06.12.2018 07:00 8,3 C 7,9 C 7,3 C 98 % 1012,6 hPa 0,0 l/m 0,00 h 0,17 h 0 W/m 7,4 km/h (2 Bft) 95,79 %
06.12.2018 08:00 9,8 C 9,3 C 8,7 C 99 % 1013,4 hPa 0,0 l/m 0,00 h 0,03 h 7 W/m 7,0 km/h (2 Bft) 98,42 %
06.12.2018 09:00 10,4 C 9,9 C 9,2 C 99 % 1013,7 hPa 0,0 l/m 0,00 h 0,10 h 22 W/m 7,7 km/h (2 Bft) 98,02 %
06.12.2018 10:00 11,0 C 10,7 C 10,1 C 99 % 1014,0 hPa 0,0 l/m 0,00 h 0,03 h 57 W/m 12,6 km/h (3 Bft) 95,89 %
06.12.2018 11:00 11,3 C 11,2 C 10,6 C 99 % 1014,4 hPa 0,0 l/m 0,00 h 0,00 h 72 W/m 12,6 km/h (3 Bft) 97,79 %
06.12.2018 12:00 11,5 C 11,1 C 10,6 C 98 % 1014,6 hPa 0,0 l/m 0,00 h 0,00 h 43 W/m 14,2 km/h (3 Bft) 99,26 %
06.12.2018 13:00 11,7 C 11,8 C 10,9 C 95 % 1014,6 hPa 0,0 l/m 0,00 h 0,00 h 85 W/m 13,5 km/h (3 Bft) 94,89 %
06.12.2018 14:00 12,1 C 12,1 C 11,1 C 93 % 1014,4 hPa 0,0 l/m 0,00 h 0,00 h 57 W/m 12,9 km/h (3 Bft) 98,11 %
06.12.2018 15:00 12,3 C 11,9 C 11,1 C 92 % 1014,5 hPa 0,0 l/m 0,00 h 0,00 h 23 W/m 19,2 km/h (3 Bft) 99,36 %
06.12.2018 16:00 12,2 C 11,7 C 11,0 C 90 % 1014,5 hPa 0,0 l/m 0,00 h 0,00 h 6 W/m 19,1 km/h (3 Bft) 94,75 %
06.12.2018 17:00 12,1 C 11,7 C 10,9 C 91 % 1014,3 hPa 0,0 l/m 0,00 h 0,00 h 0 W/m 18,0 km/h (3 Bft) 98,16 %
06.12.2018 18:00 12,3 C 11,7 C 11,1 C 91 % 1014,1 hPa 0,0 l/m 0,00 h 0,00 h 0 W/m 18,6 km/h (3 Bft) 99,48 %
06.12.2018 19:00 12,4 C 11,9 C 11,1 C 91 % 1014,1 hPa 0,0 l/m 0,00 h 0,00 h 0 W/m 19,8 km/h (4 Bft) 95,56 %
06.12.2018 20:00 12,3 C 11,8 C 11,0 C 93 % 1014,0 hPa 0,0 l/m 0,00 h 0,00 h 0 W/m 16,4 km/h (3 Bft) 97,65 %
06.12.2018 21:00 12,5 C 12,2 C 11,1 C 92 % 1013,8 hPa 0,0 l/m 0,00 h 0,00 h 0 W/m 15,8 km/h (3 Bft) 97,51 %
06.12.2018 22:00 12,6 C 12,2 C 11,1 C 92 % 1013,5 hPa 0,0 l/m 0,00 h 0,00 h 0 W/m 17,3 km/h (3 Bft) 96,66 %
06.12.2018 23:00 12,4 C 11,4 C 10,7 C 92 % 1013,3 hPa 0,0 l/m 0,00 h 0,30 h 0 W/m 18,1 km/h (3 Bft) 96,97 %
07.12.2018 00:00 11,6 C 10,7 C 10,2 C 94 % 1013,1 hPa 0,0 l/m 0,00 h 0,10 h 0 W/m 21,1 km/h (4 Bft) 97,36 %
07.12.2018 01:00 11,7 C 10,8 C 10,5 C 92 % 1012,4 hPa 0,0 l/m 0,00 h 0,70 h 0 W/m 24,0 km/h (4 Bft) 97,76 %
07.12.2018 02:00 11,6 C 10,2 C 9,8 C 94 % 1011,8 hPa 0,4 l/m 0,00 h 0,83 h 0 W/m 22,0 km/h (4 Bft) 98,59 %
07.12.2018 03:00 11,4 C 10,4 C 10,0 C 95 % 1011,2 hPa 0,0 l/m 0,00 h 0,00 h 0 W/m 25,5 km/h (4 Bft) 96,36 %
07.12.2018 04:00 11,5 C 10,7 C 10,3 C 95 % 1010,4 hPa 0,0 l/m 0,00 h 0,07 h 0 W/m 22,8 km/h (4 Bft) 97,58 %
07.12.2018 05:00 11,5 C 10,2 C 9,9 C 95 % 1009,6 hPa 0,4 l/m 0,00 h 0,80 h 0 W/m 23,2 km/h (4 Bft) 98,11 %
07.12.2018 06:00 11,2 C 10,0 C 9,4 C 96 % 1008,9 hPa 0,2 l/m 0,00 h 0,70 h 0 W/m 24,7 km/h (4 Bft) 96,16 %
07.12.2018 07:00 11,1 C 10,0 C 9,4 C 96 % 1008,3 hPa 0,0 l/m 0,00 h 0,07 h 0 W/m 24,0 km/h (4 Bft) 96,81 %
07.12.2018 08:00 11,0 C 10,0 C 9,4 C 96 % 1007,7 hPa 0,2 l/m 0,00 h 0,67 h 6 W/m 26,7 km/h (4 Bft) 98,08 %
07.12.2018 09:00 11,0 C 10,0 C 9,5 C 97 % 1007,0 hPa 0,2 l/m 0,00 h 0,00 h 22 W/m 29,7 km/h (5 Bft) 98,44 %
07.12.2018 10:00 11,3 C 10,4 C 10,5 C 94 % 1006,1 hPa 0,0 l/m 0,00 h 0,00 h 26 W/m 30,3 km/h (5 Bft) 96,37 %
07.12.2018 11:00 11,8 C 11,3 C 10,9 C 91 % 1005,0 hPa 0,0 l/m 0,00 h 0,00 h 46 W/m 28,6 km/h (4 Bft) 97,86 %
07.12.2018 12:00 12,5 C 12,2 C 11,7 C 87 % 1003,2 hPa 0,0 l/m 0,00 h 0,00 h 47 W/m 32,6 km/h (5 Bft) 99,49 %
07.12.2018 13:00 12,9 C 13,4 C 12,0 C 84 % 1001,0 hPa 0,0 l/m 0,27 h 0,00 h 122 W/m 31,3 km/h (5 Bft) 94,80 %
07.12.2018 14:00 13,0 C 12,4 C 11,8 C 83 % 999,9 hPa 0,0 l/m 0,03 h 0,00 h 39 W/m 29,3 km/h (5 Bft) 98,57 %
07.12.2018 15:00 12,1 C 10,5 C 10,3 C 84 % 998,5 hPa 0,2 l/m 0,00 h 0,47 h 9 W/m 36,3 km/h (5 Bft) 99,72 %
07.12.2018 16:00 11,0 C 8,9 C 8,5 C 90 % 997,5 hPa 1,6 l/m 0,00 h 1,00 h 0 W/m 28,5 km/h (4 Bft) 95,09 %
07.12.2018 17:00 10,3 C 8,9 C 8,3 C 94 % 996,3 hPa 0,8 l/m 0,00 h 0,97 h 0 W/m 24,3 km/h (4 Bft) 97,50 %
07.12.2018 18:00 10,0 C 8,4 C 8,0 C 95 % 996,5 hPa 2,6 l/m 0,00 h 1,00 h 0 W/m 24,7 km/h (4 Bft) 98,93 %
07.12.2018 19:00 8,0 C 6,6 C 6,4 C 95 % 998,6 hPa 1,8 l/m 0,00 h 1,00 h 0 W/m 22,5 km/h (4 Bft) 96,30 %
07.12.2018 20:00 7,1 C 6,1 C 5,7 C 95 % 1000,0 hPa 0,0 l/m 0,00 h 0,07 h 0 W/m 15,7 km/h (3 Bft) 97,15 %
07.12.2018 21:00 6,6 C 5,4 C 5,1 C 94 % 1001,5 hPa 0,2 l/m 0,00 h 0,33 h 0 W/m 16,4 km/h (3 Bft) 97,09 %
07.12.2018 22:00 6,4 C 5,4 C 4,8 C 94 % 1002,5 hPa 0,0 l/m 0,00 h 0,00 h 0 W/m 18,9 km/h (3 Bft) 97,58 %
07.12.2018 23:00 6,1 C 5,0 C 4,4 C 92 % 1003,4 hPa 0,4 l/m 0,00 h 0,23 h 0 W/m 18,8 km/h (3 Bft) 98,87 %
08.12.2018 00:00 6,0 C 5,0 C 4,4 C 92 % 1003,6 hPa 0,0 l/m 0,00 h 0,00 h 0 W/m 19,9 km/h (4 Bft) 96,54 %
08.12.2018 01:00 6,1 C 5,4 C 4,4 C 91 % 1003,8 hPa 0,0 l/m 0,00 h 0,00 h 0 W/m 22,9 km/h (4 Bft) 96,57 %
08.12.2018 02:00 6,3 C 5,7 C 4,4 C 90 % 1004,0 hPa 0,0 l/m 0,00 h 0,00 h 0 W/m 24,4 km/h (4 Bft) 98,32 %
08.12.2018 03:00 6,1 C 5,6 C 4,4 C 90 % 1003,7 hPa 0,0 l/m 0,00 h 0,00 h 0 W/m 23,6 km/h (4 Bft) 99,27 %
08.12.2018 04:00 6,4 C 5,9 C 5,1 C 89 % 1003,1 hPa 0,0 l/m 0,00 h 0,00 h 0 W/m 29,3 km/h (5 Bft) 94,33 %
08.12.2018 05:00 7,0 C 6,4 C 5,8 C 89 % 1002,7 hPa 0,0 l/m 0,00 h 0,47 h 0 W/m 29,9 km/h (5 Bft) 98,93 %
08.12.2018 06:00 7,5 C 7,0 C 6,3 C 87 % 1002,5 hPa 0,0 l/m 0,00 h 0,17 h 0 W/m 32,9 km/h (5 Bft) 98,50 %
08.12.2018 07:00 7,4 C 6,6 C 6,1 C 88 % 1002,1 hPa 0,0 l/m 0,00 h 0,17 h 0 W/m 32,3 km/h (5 Bft) 95,89 %
08.12.2018 08:00 7,1 C 5,6 C 5,1 C 91 % 1001,9 hPa 0,4 l/m 0,00 h 1,00 h 1 W/m 31,1 km/h (5 Bft) 97,14 %
08.12.2018 09:00 7,3 C 6,0 C 5,6 C 91 % 1001,6 hPa 0,2 l/m 0,00 h 0,73 h 14 W/m 29,3 km/h (5 Bft) 97,17 %
08.12.2018 10:00 7,8 C 6,4 C 5,9 C 91 % 1001,4 hPa 0,0 l/m 0,00 h 1,00 h 24 W/m 24,6 km/h (4 Bft) 97,73 %
08.12.2018 11:00 8,3 C 7,0 C 6,5 C 90 % 1001,5 hPa 0,2 l/m 0,03 h 1,00 h 58 W/m 25,8 km/h (4 Bft) 98,66 %
08.12.2018 12:00 8,9 C 7,8 C 7,1 C 87 % 1001,6 hPa 0,0 l/m 0,00 h 0,83 h 55 W/m 24,2 km/h (4 Bft) 93,92 %
08.12.2018 13:00 9,2 C 8,8 C 7,7 C 84 % 1001,5 hPa 0,2 l/m 0,00 h 0,10 h 41 W/m 23,4 km/h (4 Bft) 98,73 %
08.12.2018 14:00 9,2 C 8,3 C 7,7 C 84 % 1001,6 hPa 0,0 l/m 0,00 h 0,77 h 21 W/m 20,1 km/h (4 Bft) 99,21 %
08.12.2018 15:00 9,4 C 8,9 C 8,2 C 83 % 1001,3 hPa 0,0 l/m 0,00 h 0,13 h 10 W/m 20,5 km/h (4 Bft) 95,01 %
08.12.2018 16:00 9,7 C 9,3 C 8,3 C 80 % 1000,9 hPa 0,0 l/m 0,00 h 0,00 h 6 W/m 16,4 km/h (3 Bft) 98,00 %
08.12.2018 17:00 9,8 C 8,9 C 8,0 C 83 % 1000,1 hPa 0,0 l/m 0,00 h 0,53 h 0 W/m 19,7 km/h (3 Bft) 98,39 %
08.12.2018 18:00 9,4 C 7,9 C 7,3 C 90 % 998,8 hPa 0,4 l/m 0,00 h 0,93 h 0 W/m 28,9 km/h (5 Bft) 96,60 %
08.12.2018 19:00 9,0 C 7,8 C 7,2 C 94 % 997,1 hPa 0,8 l/m 0,00 h 0,83 h 0 W/m 34,3 km/h (5 Bft) 97,43 %
08.12.2018 20:00 9,1 C 7,9 C 7,4 C 96 % 995,1 hPa 1,4 l/m 0,00 h 1,00 h 0 W/m 35,7 km/h (5 Bft) 97,21 %
08.12.2018 21:00 9,4 C 8,3 C 7,8 C 96 % 993,4 hPa 1,6 l/m 0,00 h 0,93 h 0 W/m 35,9 km/h (5 Bft) 97,71 %
08.12.2018 22:00 9,7 C 8,6 C 8,1 C 96 % 992,7 hPa 0,8 l/m 0,00 h 0,60 h 0 W/m 21,3 km/h (4 Bft) 98,79 %
08.12.2018 23:00 9,9 C 8,8 C 8,0 C 95 % 992,5 hPa 0,0 l/m 0,00 h 1,00 h 0 W/m 24,7 km/h (4 Bft) 94,85 %
09.12.2018 00:00 9,9 C 8,3 C 7,8 C 88 % 992,2 hPa 0,0 l/m 0,00 h 0,03 h 0 W/m 29,0 km/h (5 Bft) 98,79 %
09.12.2018 01:00 9,7 C 8,2 C 7,6 C 87 % 992,4 hPa 0,2 l/m 0,00 h 0,63 h 0 W/m 24,5 km/h (4 Bft) 98,72 %
09.12.2018 02:00 9,4 C 8,7 C 7,7 C 87 % 992,7 hPa 0,0 l/m 0,00 h 0,53 h 0 W/m 27,5 km/h (4 Bft) 95,96 %
09.12.2018 03:00 8,5 C 6,8 C 6,3 C 89 % 993,4 hPa 2,4 l/m 0,00 h 0,90 h 0 W/m 27,5 km/h (4 Bft) 97,44 %
09.12.2018 04:00 7,8 C 6,4 C 5,9 C 92 % 993,5 hPa 0,2 l/m 0,00 h 0,63 h 0 W/m 23,9 km/h (4 Bft) 98,25 %
09.12.2018 05:00 7,4 C 6,1 C 5,6 C 93 % 993,8 hPa 0,2 l/m 0,00 h 0,97 h 0 W/m 26,1 km/h (4 Bft) 97,85 %
09.12.2018 06:00 7,6 C 6,2 C 5,8 C 93 % 994,3 hPa 0,4 l/m 0,00 h 1,00 h 0 W/m 25,1 km/h (4 Bft) 97,74 %
09.12.2018 07:00 7,5 C 6,4 C 5,8 C 95 % 994,9 hPa 0,8 l/m 0,00 h 0,37 h 0 W/m 22,2 km/h (4 Bft) 96,58 %
09.12.2018 08:00 7,6 C 6,7 C 6,1 C 93 % 995,4 hPa 0,0 l/m 0,00 h 0,00 h 13 W/m 23,9 km/h (4 Bft) 97,78 %
09.12.2018 09:00 8,0 C 7,0 C 6,4 C 91 % 996,3 hPa 0,0 l/m 0,00 h 0,17 h 29 W/m 22,5 km/h (4 Bft) 97,63 %
09.12.2018 10:00 8,3 C 7,5 C 6,6 C 90 % 996,9 hPa 0,4 l/m 0,00 h 0,93 h 31 W/m 19,0 km/h (3 Bft) 97,09 %
09.12.2018 11:00 8,1 C 6,9 C 6,4 C 93 % 997,4 hPa 0,4 l/m 0,00 h 0,43 h 37 W/m 18,3 km/h (3 Bft) 96,72 %
09.12.2018 12:00 8,1 C 7,4 C 6,7 C 94 % 997,9 hPa 2,2 l/m 0,10 h 0,77 h 85 W/m 22,3 km/h (4 Bft) 97,37 %
09.12.2018 13:00 7,0 C 5,9 C 5,7 C 95 % 998,8 hPa 1,4 l/m 0,00 h 0,77 h 25 W/m 16,8 km/h (3 Bft) 97,66 %
09.12.2018 14:00 7,3 C 6,8 C 6,1 C 97 % 1000,0 hPa 0,0 l/m 0,03 h 0,80 h 70 W/m 19,2 km/h (3 Bft) 96,44 %
09.12.2018 15:00 7,6 C 7,0 C 6,5 C 97 % 1001,5 hPa 0,2 l/m 0,30 h 0,33 h 46 W/m 17,9 km/h (3 Bft) 98,34 %
09.12.2018 16:00 7,5 C 6,3 C 5,8 C 96 % 1003,2 hPa 1,0 l/m 0,00 h 0,37 h 6 W/m 19,1 km/h (3 Bft) 97,74 %
09.12.2018 17:00 7,0 C 5,8 C 5,3 C 95 % 1005,0 hPa 0,2 l/m 0,00 h 0,33 h 0 W/m 19,6 km/h (3 Bft) 95,73 %
09.12.2018 18:00 6,7 C 5,6 C 5,0 C 95 % 1006,7 hPa 0,2 l/m 0,00 h 0,43 h 0 W/m 17,9 km/h (3 Bft) 98,71 %
09.12.2018 19:00 6,5 C 5,3 C 4,9 C 95 % 1008,3 hPa 0,0 l/m 0,00 h 0,60 h 0 W/m 20,0 km/h (4 Bft) 97,00 %
09.12.2018 20:00 6,1 C 5,1 C 4,5 C 95 % 1009,6 hPa 0,0 l/m 0,00 h 0,33 h 0 W/m 15,8 km/h (3 Bft) 97,86 %
09.12.2018 21:00 5,9 C 5,0 C 4,4 C 95 % 1010,7 hPa 0,0 l/m 0,00 h 0,47 h 0 W/m 16,4 km/h (3 Bft) 97,08 %
09.12.2018 22:00 5,7 C 4,6 C 4,2 C 95 % 1011,6 hPa 0,0 l/m 0,00 h 1,00 h 0 W/m 13,6 km/h (3 Bft) 95,94 %
09.12.2018 23:00 5,2 C 4,4 C 4,0 C 95 % 1012,7 hPa 0,2 l/m 0,00 h 0,70 h 0 W/m 14,2 km/h (3 Bft) 99,50 %
Min-Datum _ 05.12.18 04.12.18 04.12.18 04.12.18 09.12.18 - - - - 04.12.18 03.12.18
_ Min-Zeit 05:36 22:02 22:02 13:20 00:26 - - - - 05:42 00:02
Minimum _ 1,3 C 0,0 C 0,0 C 76 % 992,0 hPa - - - - 0,0 km/h (0 Bft) 9,09 %
Max-Datum _ 03.12.18 04.12.18 04.12.18 06.12.18 04.12.18 07.12.18 03.12.18 07.12.18 03.12.18 07.12.18 03.12.18
_ Max-Zeit 13:48 12:28 12:18 07:48 23:00 18:12 12:08 05:19 12:18 13:32 00:07
Maximum _ 14,2 C 18,3 C 13,9 C 99 % 1024,6 hPa 2,6 l/m 0,07 h 0,08 h 377 W/m 57,9 km/h
S-SO (7 Bft)
100,00 %
Durchschnitt _ 8,6 C 7,9 C 7,1 C 93 % 1007,7 hPa #33,2 l/m #6:25 h #43:54 h 56 W/m 18,1 km/h (3 Bft) 97,36 %
© 2018 W. Hausmann